<?xml version="1.0" encoding="UTF-8" standalone="no" ?>
<gpx xmlns="http://www.topografix.com/GPX/1/1" xmlns:xsi="http://www.w3.org/2001/XMLSchema-instance" xsi:schemaLocation="http://www.topografix.com/GPX/1/1 http://www.topografix.com/GPX/1/1/gpx.xsd" version="1.1" creator="VisuGPX - https://www.visugpx.com">
  <metadata>
    <name>Landisaq 25km</name>
  </metadata>
  <trk>
    <name><![CDATA[Landisaq 25km_1]]></name>
    <trkseg>
      <trkpt lat="48.74791" lon="-0.5722">
        <ele>197.6</ele>
        <time>1989-12-31T00:00:00Z</time>
      </trkpt>
      <trkpt lat="48.74768" lon="-0.57215">
        <ele>198.6</ele>
        <time>1989-12-31T00:00:04Z</time>
      </trkpt>
      <trkpt lat="48.74765" lon="-0.57237">
        <ele>198.6</ele>
        <time>1989-12-31T00:00:07Z</time>
      </trkpt>
      <trkpt lat="48.74944" lon="-0.57398">
        <ele>195.8</ele>
        <time>1989-12-31T00:00:50Z</time>
      </trkpt>
      <trkpt lat="48.74963" lon="-0.5735">
        <ele>195.8</ele>
        <time>1989-12-31T00:00:58Z</time>
      </trkpt>
      <trkpt lat="48.74984" lon="-0.57348">
        <ele>195.8</ele>
        <time>1989-12-31T00:01:03Z</time>
      </trkpt>
      <trkpt lat="48.75036" lon="-0.57394">
        <ele>194.8</ele>
        <time>1989-12-31T00:01:15Z</time>
      </trkpt>
      <trkpt lat="48.75046" lon="-0.57412">
        <ele>195.8</ele>
        <time>1989-12-31T00:01:18Z</time>
      </trkpt>
      <trkpt lat="48.7504" lon="-0.57485">
        <ele>196.2</ele>
        <time>1989-12-31T00:01:28Z</time>
      </trkpt>
      <trkpt lat="48.75229" lon="-0.57549">
        <ele>193.4</ele>
        <time>1989-12-31T00:02:09Z</time>
      </trkpt>
      <trkpt lat="48.75306" lon="-0.57628">
        <ele>191.4</ele>
        <time>1989-12-31T00:02:28Z</time>
      </trkpt>
      <trkpt lat="48.75309" lon="-0.57736">
        <ele>192</ele>
        <time>1989-12-31T00:02:43Z</time>
      </trkpt>
      <trkpt lat="48.75365" lon="-0.57794">
        <ele>191.4</ele>
        <time>1989-12-31T00:02:57Z</time>
      </trkpt>
      <trkpt lat="48.75341" lon="-0.57902">
        <ele>196.2</ele>
        <time>1989-12-31T00:03:12Z</time>
      </trkpt>
      <trkpt lat="48.75393" lon="-0.57954">
        <ele>194.8</ele>
        <time>1989-12-31T00:03:25Z</time>
      </trkpt>
      <trkpt lat="48.75424" lon="-0.58005">
        <ele>193.8</ele>
        <time>1989-12-31T00:03:34Z</time>
      </trkpt>
      <trkpt lat="48.75474" lon="-0.58066">
        <ele>191.4</ele>
        <time>1989-12-31T00:03:48Z</time>
      </trkpt>
      <trkpt lat="48.7541" lon="-0.58117">
        <ele>198.6</ele>
        <time>1989-12-31T00:04:03Z</time>
      </trkpt>
      <trkpt lat="48.75369" lon="-0.5816">
        <ele>200</ele>
        <time>1989-12-31T00:04:13Z</time>
      </trkpt>
      <trkpt lat="48.75434" lon="-0.58293">
        <ele>200.6</ele>
        <time>1989-12-31T00:04:36Z</time>
      </trkpt>
      <trkpt lat="48.7552" lon="-0.58436">
        <ele>197.6</ele>
        <time>1989-12-31T00:05:02Z</time>
      </trkpt>
      <trkpt lat="48.75562" lon="-0.58482">
        <ele>194.8</ele>
        <time>1989-12-31T00:05:13Z</time>
      </trkpt>
      <trkpt lat="48.75714" lon="-0.5855">
        <ele>193.8</ele>
        <time>1989-12-31T00:05:46Z</time>
      </trkpt>
      <trkpt lat="48.76028" lon="-0.58641">
        <ele>200.6</ele>
        <time>1989-12-31T00:06:53Z</time>
      </trkpt>
      <trkpt lat="48.76057" lon="-0.58653">
        <ele>200.6</ele>
        <time>1989-12-31T00:06:59Z</time>
      </trkpt>
      <trkpt lat="48.76062" lon="-0.58687">
        <ele>202</ele>
        <time>1989-12-31T00:07:03Z</time>
      </trkpt>
      <trkpt lat="48.76043" lon="-0.58759">
        <ele>202</ele>
        <time>1989-12-31T00:07:14Z</time>
      </trkpt>
      <trkpt lat="48.75969" lon="-0.58843">
        <ele>201</ele>
        <time>1989-12-31T00:07:33Z</time>
      </trkpt>
      <trkpt lat="48.75982" lon="-0.58952">
        <ele>197.6</ele>
        <time>1989-12-31T00:07:48Z</time>
      </trkpt>
      <trkpt lat="48.7592" lon="-0.59047">
        <ele>201</ele>
        <time>1989-12-31T00:08:07Z</time>
      </trkpt>
      <trkpt lat="48.75997" lon="-0.59181">
        <ele>200</ele>
        <time>1989-12-31T00:08:31Z</time>
      </trkpt>
      <trkpt lat="48.76061" lon="-0.59327">
        <ele>204</ele>
        <time>1989-12-31T00:08:55Z</time>
      </trkpt>
      <trkpt lat="48.76094" lon="-0.59406">
        <ele>204.4</ele>
        <time>1989-12-31T00:09:08Z</time>
      </trkpt>
      <trkpt lat="48.76143" lon="-0.59507">
        <ele>203</ele>
        <time>1989-12-31T00:09:25Z</time>
      </trkpt>
      <trkpt lat="48.76174" lon="-0.59611">
        <ele>199.6</ele>
        <time>1989-12-31T00:09:40Z</time>
      </trkpt>
      <trkpt lat="48.76221" lon="-0.59696">
        <ele>204.4</ele>
        <time>1989-12-31T00:09:56Z</time>
      </trkpt>
      <trkpt lat="48.76248" lon="-0.59723">
        <ele>205.8</ele>
        <time>1989-12-31T00:10:02Z</time>
      </trkpt>
      <trkpt lat="48.76281" lon="-0.59831">
        <ele>212.2</ele>
        <time>1989-12-31T00:10:19Z</time>
      </trkpt>
      <trkpt lat="48.76276" lon="-0.59924">
        <ele>214.6</ele>
        <time>1989-12-31T00:10:31Z</time>
      </trkpt>
      <trkpt lat="48.76234" lon="-0.60287">
        <ele>194.8</ele>
        <time>1989-12-31T00:11:22Z</time>
      </trkpt>
      <trkpt lat="48.76173" lon="-0.60524">
        <ele>202</ele>
        <time>1989-12-31T00:11:57Z</time>
      </trkpt>
      <trkpt lat="48.76149" lon="-0.60615">
        <ele>200.6</ele>
        <time>1989-12-31T00:12:10Z</time>
      </trkpt>
      <trkpt lat="48.76062" lon="-0.60832">
        <ele>200.6</ele>
        <time>1989-12-31T00:12:45Z</time>
      </trkpt>
      <trkpt lat="48.76025" lon="-0.60857">
        <ele>201</ele>
        <time>1989-12-31T00:12:53Z</time>
      </trkpt>
      <trkpt lat="48.75965" lon="-0.60863">
        <ele>205.8</ele>
        <time>1989-12-31T00:13:06Z</time>
      </trkpt>
      <trkpt lat="48.75869" lon="-0.6081">
        <ele>210.6</ele>
        <time>1989-12-31T00:13:27Z</time>
      </trkpt>
      <trkpt lat="48.75808" lon="-0.60771">
        <ele>210.2</ele>
        <time>1989-12-31T00:13:41Z</time>
      </trkpt>
      <trkpt lat="48.75665" lon="-0.60831">
        <ele>214.6</ele>
        <time>1989-12-31T00:14:11Z</time>
      </trkpt>
      <trkpt lat="48.75512" lon="-0.60908">
        <ele>217.8</ele>
        <time>1989-12-31T00:14:45Z</time>
      </trkpt>
      <trkpt lat="48.75437" lon="-0.6102">
        <ele>221.8</ele>
        <time>1989-12-31T00:15:07Z</time>
      </trkpt>
      <trkpt lat="48.75402" lon="-0.61042">
        <ele>222.6</ele>
        <time>1989-12-31T00:15:15Z</time>
      </trkpt>
      <trkpt lat="48.75297" lon="-0.60957">
        <ele>222.6</ele>
        <time>1989-12-31T00:15:39Z</time>
      </trkpt>
      <trkpt lat="48.75295" lon="-0.60941">
        <ele>221.8</ele>
        <time>1989-12-31T00:15:41Z</time>
      </trkpt>
      <trkpt lat="48.75328" lon="-0.60854">
        <ele>221.8</ele>
        <time>1989-12-31T00:15:55Z</time>
      </trkpt>
      <trkpt lat="48.75448" lon="-0.60706">
        <ele>221.2</ele>
        <time>1989-12-31T00:16:27Z</time>
      </trkpt>
      <trkpt lat="48.75441" lon="-0.60693">
        <ele>221.2</ele>
        <time>1989-12-31T00:16:29Z</time>
      </trkpt>
      <trkpt lat="48.75172" lon="-0.60838">
        <ele>222.2</ele>
        <time>1989-12-31T00:17:28Z</time>
      </trkpt>
      <trkpt lat="48.75087" lon="-0.60924">
        <ele>222.2</ele>
        <time>1989-12-31T00:17:50Z</time>
      </trkpt>
      <trkpt lat="48.74896" lon="-0.61168">
        <ele>219.4</ele>
        <time>1989-12-31T00:18:42Z</time>
      </trkpt>
      <trkpt lat="48.74857" lon="-0.61196">
        <ele>218.8</ele>
        <time>1989-12-31T00:18:51Z</time>
      </trkpt>
      <trkpt lat="48.74764" lon="-0.61245">
        <ele>215.4</ele>
        <time>1989-12-31T00:19:11Z</time>
      </trkpt>
      <trkpt lat="48.74773" lon="-0.61318">
        <ele>219.4</ele>
        <time>1989-12-31T00:19:21Z</time>
      </trkpt>
      <trkpt lat="48.74839" lon="-0.61389">
        <ele>223.2</ele>
        <time>1989-12-31T00:19:38Z</time>
      </trkpt>
      <trkpt lat="48.74893" lon="-0.61481">
        <ele>223.2</ele>
        <time>1989-12-31T00:19:55Z</time>
      </trkpt>
      <trkpt lat="48.74874" lon="-0.61534">
        <ele>222.6</ele>
        <time>1989-12-31T00:20:03Z</time>
      </trkpt>
      <trkpt lat="48.74974" lon="-0.61808">
        <ele>209.2</ele>
        <time>1989-12-31T00:20:46Z</time>
      </trkpt>
      <trkpt lat="48.75" lon="-0.6184">
        <ele>210.6</ele>
        <time>1989-12-31T00:20:53Z</time>
      </trkpt>
      <trkpt lat="48.75034" lon="-0.6183">
        <ele>211.6</ele>
        <time>1989-12-31T00:21:00Z</time>
      </trkpt>
      <trkpt lat="48.75093" lon="-0.61679">
        <ele>217</ele>
        <time>1989-12-31T00:21:24Z</time>
      </trkpt>
      <trkpt lat="48.75137" lon="-0.61533">
        <ele>217</ele>
        <time>1989-12-31T00:21:46Z</time>
      </trkpt>
      <trkpt lat="48.75164" lon="-0.61547">
        <ele>213.6</ele>
        <time>1989-12-31T00:21:52Z</time>
      </trkpt>
      <trkpt lat="48.7521" lon="-0.6166">
        <ele>211.6</ele>
        <time>1989-12-31T00:22:10Z</time>
      </trkpt>
      <trkpt lat="48.75301" lon="-0.61798">
        <ele>217</ele>
        <time>1989-12-31T00:22:37Z</time>
      </trkpt>
      <trkpt lat="48.75328" lon="-0.61849">
        <ele>217</ele>
        <time>1989-12-31T00:22:46Z</time>
      </trkpt>
      <trkpt lat="48.75349" lon="-0.61902">
        <ele>210.6</ele>
        <time>1989-12-31T00:22:54Z</time>
      </trkpt>
      <trkpt lat="48.75387" lon="-0.61948">
        <ele>202.4</ele>
        <time>1989-12-31T00:23:04Z</time>
      </trkpt>
      <trkpt lat="48.75405" lon="-0.62074">
        <ele>198.2</ele>
        <time>1989-12-31T00:23:22Z</time>
      </trkpt>
      <trkpt lat="48.75497" lon="-0.62123">
        <ele>198.2</ele>
        <time>1989-12-31T00:23:42Z</time>
      </trkpt>
      <trkpt lat="48.75513" lon="-0.62092">
        <ele>200</ele>
        <time>1989-12-31T00:23:48Z</time>
      </trkpt>
      <trkpt lat="48.75532" lon="-0.621">
        <ele>202</ele>
        <time>1989-12-31T00:23:52Z</time>
      </trkpt>
      <trkpt lat="48.75561" lon="-0.6221">
        <ele>210.2</ele>
        <time>1989-12-31T00:24:08Z</time>
      </trkpt>
      <trkpt lat="48.75585" lon="-0.62374">
        <ele>214.6</ele>
        <time>1989-12-31T00:24:31Z</time>
      </trkpt>
      <trkpt lat="48.75643" lon="-0.62385">
        <ele>220.8</ele>
        <time>1989-12-31T00:24:43Z</time>
      </trkpt>
      <trkpt lat="48.75733" lon="-0.62427">
        <ele>224.2</ele>
        <time>1989-12-31T00:25:02Z</time>
      </trkpt>
      <trkpt lat="48.75839" lon="-0.62513">
        <ele>227.4</ele>
        <time>1989-12-31T00:25:27Z</time>
      </trkpt>
      <trkpt lat="48.75868" lon="-0.62589">
        <ele>231.8</ele>
        <time>1989-12-31T00:25:39Z</time>
      </trkpt>
      <trkpt lat="48.75892" lon="-0.62714">
        <ele>236.2</ele>
        <time>1989-12-31T00:25:57Z</time>
      </trkpt>
      <trkpt lat="48.75885" lon="-0.62858">
        <ele>236.6</ele>
        <time>1989-12-31T00:26:17Z</time>
      </trkpt>
      <trkpt lat="48.76005" lon="-0.62865">
        <ele>236.6</ele>
        <time>1989-12-31T00:26:42Z</time>
      </trkpt>
      <trkpt lat="48.76055" lon="-0.63022">
        <ele>234.2</ele>
        <time>1989-12-31T00:27:06Z</time>
      </trkpt>
      <trkpt lat="48.76097" lon="-0.63109">
        <ele>235.2</ele>
        <time>1989-12-31T00:27:21Z</time>
      </trkpt>
      <trkpt lat="48.76187" lon="-0.63254">
        <ele>231.4</ele>
        <time>1989-12-31T00:27:48Z</time>
      </trkpt>
      <trkpt lat="48.76217" lon="-0.63433">
        <ele>231.8</ele>
        <time>1989-12-31T00:28:13Z</time>
      </trkpt>
      <trkpt lat="48.76141" lon="-0.63652">
        <ele>238</ele>
        <time>1989-12-31T00:28:47Z</time>
      </trkpt>
      <trkpt lat="48.76102" lon="-0.63706">
        <ele>241</ele>
        <time>1989-12-31T00:28:58Z</time>
      </trkpt>
      <trkpt lat="48.76069" lon="-0.63781">
        <ele>244.8</ele>
        <time>1989-12-31T00:29:10Z</time>
      </trkpt>
      <trkpt lat="48.75978" lon="-0.63966">
        <ele>252.4</ele>
        <time>1989-12-31T00:29:42Z</time>
      </trkpt>
      <trkpt lat="48.75916" lon="-0.64136">
        <ele>257.8</ele>
        <time>1989-12-31T00:30:08Z</time>
      </trkpt>
      <trkpt lat="48.75861" lon="-0.64316">
        <ele>257.8</ele>
        <time>1989-12-31T00:30:36Z</time>
      </trkpt>
      <trkpt lat="48.75842" lon="-0.6438">
        <ele>255.4</ele>
        <time>1989-12-31T00:30:45Z</time>
      </trkpt>
      <trkpt lat="48.75832" lon="-0.64649">
        <ele>253.4</ele>
        <time>1989-12-31T00:31:22Z</time>
      </trkpt>
      <trkpt lat="48.75807" lon="-0.64716">
        <ele>255.4</ele>
        <time>1989-12-31T00:31:33Z</time>
      </trkpt>
      <trkpt lat="48.75783" lon="-0.6476">
        <ele>255.4</ele>
        <time>1989-12-31T00:31:40Z</time>
      </trkpt>
      <trkpt lat="48.7569" lon="-0.64715">
        <ele>251.6</ele>
        <time>1989-12-31T00:32:01Z</time>
      </trkpt>
      <trkpt lat="48.75627" lon="-0.64957">
        <ele>249.2</ele>
        <time>1989-12-31T00:32:36Z</time>
      </trkpt>
      <trkpt lat="48.7559" lon="-0.64992">
        <ele>249.2</ele>
        <time>1989-12-31T00:32:45Z</time>
      </trkpt>
      <trkpt lat="48.75473" lon="-0.64931">
        <ele>248.2</ele>
        <time>1989-12-31T00:33:11Z</time>
      </trkpt>
      <trkpt lat="48.75173" lon="-0.6487">
        <ele>232.2</ele>
        <time>1989-12-31T00:34:14Z</time>
      </trkpt>
      <trkpt lat="48.75041" lon="-0.64762">
        <ele>225</ele>
        <time>1989-12-31T00:34:45Z</time>
      </trkpt>
      <trkpt lat="48.7499" lon="-0.64616">
        <ele>222.2</ele>
        <time>1989-12-31T00:35:07Z</time>
      </trkpt>
      <trkpt lat="48.74967" lon="-0.64587">
        <ele>223.2</ele>
        <time>1989-12-31T00:35:14Z</time>
      </trkpt>
      <trkpt lat="48.74931" lon="-0.64574">
        <ele>227.4</ele>
        <time>1989-12-31T00:35:21Z</time>
      </trkpt>
      <trkpt lat="48.7492" lon="-0.64561">
        <ele>227.4</ele>
        <time>1989-12-31T00:35:24Z</time>
      </trkpt>
      <trkpt lat="48.74885" lon="-0.64551">
        <ele>231.4</ele>
        <time>1989-12-31T00:35:31Z</time>
      </trkpt>
      <trkpt lat="48.74832" lon="-0.64515">
        <ele>236.6</ele>
        <time>1989-12-31T00:35:44Z</time>
      </trkpt>
      <trkpt lat="48.74686" lon="-0.64415">
        <ele>245.8</ele>
        <time>1989-12-31T00:36:17Z</time>
      </trkpt>
      <trkpt lat="48.7463" lon="-0.64397">
        <ele>244.8</ele>
        <time>1989-12-31T00:36:29Z</time>
      </trkpt>
      <trkpt lat="48.74575" lon="-0.64416">
        <ele>247.6</ele>
        <time>1989-12-31T00:36:41Z</time>
      </trkpt>
      <trkpt lat="48.74387" lon="-0.6452">
        <ele>250.6</ele>
        <time>1989-12-31T00:37:22Z</time>
      </trkpt>
      <trkpt lat="48.74425" lon="-0.64716">
        <ele>252</ele>
        <time>1989-12-31T00:37:50Z</time>
      </trkpt>
      <trkpt lat="48.74316" lon="-0.64775">
        <ele>255.8</ele>
        <time>1989-12-31T00:38:14Z</time>
      </trkpt>
      <trkpt lat="48.74277" lon="-0.64994">
        <ele>253</ele>
        <time>1989-12-31T00:38:45Z</time>
      </trkpt>
      <trkpt lat="48.74227" lon="-0.65074">
        <ele>253</ele>
        <time>1989-12-31T00:39:00Z</time>
      </trkpt>
      <trkpt lat="48.74094" lon="-0.65215">
        <ele>257.2</ele>
        <time>1989-12-31T00:39:34Z</time>
      </trkpt>
      <trkpt lat="48.74075" lon="-0.65246">
        <ele>257.8</ele>
        <time>1989-12-31T00:39:40Z</time>
      </trkpt>
      <trkpt lat="48.73985" lon="-0.65339">
        <ele>255.8</ele>
        <time>1989-12-31T00:40:02Z</time>
      </trkpt>
      <trkpt lat="48.7399" lon="-0.65412">
        <ele>254</ele>
        <time>1989-12-31T00:40:12Z</time>
      </trkpt>
      <trkpt lat="48.74063" lon="-0.65528">
        <ele>250.6</ele>
        <time>1989-12-31T00:40:34Z</time>
      </trkpt>
      <trkpt lat="48.74062" lon="-0.65534">
        <ele>250</ele>
        <time>1989-12-31T00:40:35Z</time>
      </trkpt>
      <trkpt lat="48.73967" lon="-0.65534">
        <ele>247.2</ele>
        <time>1989-12-31T00:40:55Z</time>
      </trkpt>
      <trkpt lat="48.73922" lon="-0.6556">
        <ele>250.6</ele>
        <time>1989-12-31T00:41:05Z</time>
      </trkpt>
      <trkpt lat="48.739" lon="-0.65588">
        <ele>248.2</ele>
        <time>1989-12-31T00:41:11Z</time>
      </trkpt>
      <trkpt lat="48.73851" lon="-0.65596">
        <ele>245.8</ele>
        <time>1989-12-31T00:41:21Z</time>
      </trkpt>
      <trkpt lat="48.73853" lon="-0.65633">
        <ele>246.2</ele>
        <time>1989-12-31T00:41:26Z</time>
      </trkpt>
      <trkpt lat="48.73809" lon="-0.65705">
        <ele>249.6</ele>
        <time>1989-12-31T00:41:40Z</time>
      </trkpt>
      <trkpt lat="48.73795" lon="-0.6571">
        <ele>249.2</ele>
        <time>1989-12-31T00:41:43Z</time>
      </trkpt>
      <trkpt lat="48.73763" lon="-0.65673">
        <ele>255.8</ele>
        <time>1989-12-31T00:41:51Z</time>
      </trkpt>
      <trkpt lat="48.73734" lon="-0.65647">
        <ele>254.8</ele>
        <time>1989-12-31T00:41:58Z</time>
      </trkpt>
      <trkpt lat="48.73704" lon="-0.65638">
        <ele>258.2</ele>
        <time>1989-12-31T00:42:04Z</time>
      </trkpt>
      <trkpt lat="48.73572" lon="-0.65676">
        <ele>260.6</ele>
        <time>1989-12-31T00:42:32Z</time>
      </trkpt>
      <trkpt lat="48.73372" lon="-0.65673">
        <ele>265</ele>
        <time>1989-12-31T00:43:14Z</time>
      </trkpt>
      <trkpt lat="48.73325" lon="-0.65662">
        <ele>267.4</ele>
        <time>1989-12-31T00:43:24Z</time>
      </trkpt>
      <trkpt lat="48.73265" lon="-0.6563">
        <ele>265</ele>
        <time>1989-12-31T00:43:37Z</time>
      </trkpt>
      <trkpt lat="48.73234" lon="-0.65445">
        <ele>270.8</ele>
        <time>1989-12-31T00:44:03Z</time>
      </trkpt>
      <trkpt lat="48.73178" lon="-0.65364">
        <ele>269.4</ele>
        <time>1989-12-31T00:44:19Z</time>
      </trkpt>
      <trkpt lat="48.73156" lon="-0.6535">
        <ele>267.8</ele>
        <time>1989-12-31T00:44:24Z</time>
      </trkpt>
      <trkpt lat="48.72825" lon="-0.65488">
        <ele>272.6</ele>
        <time>1989-12-31T00:45:35Z</time>
      </trkpt>
      <trkpt lat="48.72789" lon="-0.65536">
        <ele>274.2</ele>
        <time>1989-12-31T00:45:45Z</time>
      </trkpt>
      <trkpt lat="48.72782" lon="-0.65685">
        <ele>274.2</ele>
        <time>1989-12-31T00:46:05Z</time>
      </trkpt>
      <trkpt lat="48.72799" lon="-0.65798">
        <ele>272.6</ele>
        <time>1989-12-31T00:46:21Z</time>
      </trkpt>
      <trkpt lat="48.72814" lon="-0.65821">
        <ele>273.2</ele>
        <time>1989-12-31T00:46:26Z</time>
      </trkpt>
      <trkpt lat="48.72656" lon="-0.65748">
        <ele>277.4</ele>
        <time>1989-12-31T00:47:00Z</time>
      </trkpt>
      <trkpt lat="48.7253" lon="-0.65699">
        <ele>277</ele>
        <time>1989-12-31T00:47:27Z</time>
      </trkpt>
      <trkpt lat="48.7249" lon="-0.65709">
        <ele>279</ele>
        <time>1989-12-31T00:47:35Z</time>
      </trkpt>
      <trkpt lat="48.72419" lon="-0.6589">
        <ele>283.8</ele>
        <time>1989-12-31T00:48:04Z</time>
      </trkpt>
      <trkpt lat="48.72377" lon="-0.6595">
        <ele>290</ele>
        <time>1989-12-31T00:48:16Z</time>
      </trkpt>
      <trkpt lat="48.72353" lon="-0.65989">
        <ele>291.8</ele>
        <time>1989-12-31T00:48:23Z</time>
      </trkpt>
      <trkpt lat="48.72316" lon="-0.66022">
        <ele>292.8</ele>
        <time>1989-12-31T00:48:32Z</time>
      </trkpt>
      <trkpt lat="48.72267" lon="-0.66061">
        <ele>288.6</ele>
        <time>1989-12-31T00:48:44Z</time>
      </trkpt>
      <trkpt lat="48.72199" lon="-0.66165">
        <ele>283.2</ele>
        <time>1989-12-31T00:49:04Z</time>
      </trkpt>
      <trkpt lat="48.72113" lon="-0.66174">
        <ele>285.6</ele>
        <time>1989-12-31T00:49:22Z</time>
      </trkpt>
      <trkpt lat="48.72034" lon="-0.65905">
        <ele>295.8</ele>
        <time>1989-12-31T00:50:02Z</time>
      </trkpt>
      <trkpt lat="48.71928" lon="-0.65723">
        <ele>285.6</ele>
        <time>1989-12-31T00:50:35Z</time>
      </trkpt>
      <trkpt lat="48.71869" lon="-0.65583">
        <ele>282.2</ele>
        <time>1989-12-31T00:50:58Z</time>
      </trkpt>
      <trkpt lat="48.71781" lon="-0.65309">
        <ele>273.6</ele>
        <time>1989-12-31T00:51:40Z</time>
      </trkpt>
      <trkpt lat="48.71683" lon="-0.6511">
        <ele>272.6</ele>
        <time>1989-12-31T00:52:14Z</time>
      </trkpt>
      <trkpt lat="48.71678" lon="-0.65041">
        <ele>275</ele>
        <time>1989-12-31T00:52:23Z</time>
      </trkpt>
      <trkpt lat="48.71692" lon="-0.64995">
        <ele>274.6</ele>
        <time>1989-12-31T00:52:30Z</time>
      </trkpt>
      <trkpt lat="48.71776" lon="-0.64894">
        <ele>275</ele>
        <time>1989-12-31T00:52:52Z</time>
      </trkpt>
      <trkpt lat="48.71798" lon="-0.64847">
        <ele>278</ele>
        <time>1989-12-31T00:53:00Z</time>
      </trkpt>
      <trkpt lat="48.71915" lon="-0.64768">
        <ele>280.8</ele>
        <time>1989-12-31T00:53:27Z</time>
      </trkpt>
      <trkpt lat="48.71963" lon="-0.64705">
        <ele>284.6</ele>
        <time>1989-12-31T00:53:40Z</time>
      </trkpt>
      <trkpt lat="48.7199" lon="-0.64661">
        <ele>285.2</ele>
        <time>1989-12-31T00:53:48Z</time>
      </trkpt>
      <trkpt lat="48.71983" lon="-0.64585">
        <ele>287.6</ele>
        <time>1989-12-31T00:53:59Z</time>
      </trkpt>
      <trkpt lat="48.71952" lon="-0.64407">
        <ele>281.4</ele>
        <time>1989-12-31T00:54:24Z</time>
      </trkpt>
      <trkpt lat="48.71941" lon="-0.64198">
        <ele>273.6</ele>
        <time>1989-12-31T00:54:53Z</time>
      </trkpt>
      <trkpt lat="48.71903" lon="-0.64027">
        <ele>266</ele>
        <time>1989-12-31T00:55:17Z</time>
      </trkpt>
      <trkpt lat="48.71903" lon="-0.63976">
        <ele>262</ele>
        <time>1989-12-31T00:55:24Z</time>
      </trkpt>
      <trkpt lat="48.71973" lon="-0.63717">
        <ele>250.6</ele>
        <time>1989-12-31T00:56:03Z</time>
      </trkpt>
      <trkpt lat="48.7206" lon="-0.63546">
        <ele>245.8</ele>
        <time>1989-12-31T00:56:32Z</time>
      </trkpt>
      <trkpt lat="48.72093" lon="-0.63439">
        <ele>248.6</ele>
        <time>1989-12-31T00:56:48Z</time>
      </trkpt>
      <trkpt lat="48.72131" lon="-0.63218">
        <ele>242.8</ele>
        <time>1989-12-31T00:57:20Z</time>
      </trkpt>
      <trkpt lat="48.72171" lon="-0.63006">
        <ele>229.8</ele>
        <time>1989-12-31T00:57:50Z</time>
      </trkpt>
      <trkpt lat="48.72195" lon="-0.62904">
        <ele>220.2</ele>
        <time>1989-12-31T00:58:05Z</time>
      </trkpt>
      <trkpt lat="48.72225" lon="-0.6282">
        <ele>217</ele>
        <time>1989-12-31T00:58:18Z</time>
      </trkpt>
      <trkpt lat="48.72229" lon="-0.62761">
        <ele>219.4</ele>
        <time>1989-12-31T00:58:26Z</time>
      </trkpt>
      <trkpt lat="48.72446" lon="-0.62671">
        <ele>218.4</ele>
        <time>1989-12-31T00:59:13Z</time>
      </trkpt>
      <trkpt lat="48.72534" lon="-0.62648">
        <ele>212.6</ele>
        <time>1989-12-31T00:59:31Z</time>
      </trkpt>
      <trkpt lat="48.72652" lon="-0.62675">
        <ele>209.2</ele>
        <time>1989-12-31T00:59:56Z</time>
      </trkpt>
      <trkpt lat="48.72698" lon="-0.62667">
        <ele>213</ele>
        <time>1989-12-31T01:00:06Z</time>
      </trkpt>
      <trkpt lat="48.72876" lon="-0.62523">
        <ele>229.8</ele>
        <time>1989-12-31T01:00:48Z</time>
      </trkpt>
      <trkpt lat="48.72903" lon="-0.62503">
        <ele>229.8</ele>
        <time>1989-12-31T01:00:54Z</time>
      </trkpt>
      <trkpt lat="48.72862" lon="-0.62528">
        <ele>225.6</ele>
        <time>1989-12-31T01:01:03Z</time>
      </trkpt>
      <trkpt lat="48.72882" lon="-0.62454">
        <ele>225</ele>
        <time>1989-12-31T01:01:14Z</time>
      </trkpt>
      <trkpt lat="48.72968" lon="-0.62359">
        <ele>224.2</ele>
        <time>1989-12-31T01:01:36Z</time>
      </trkpt>
      <trkpt lat="48.73052" lon="-0.62241">
        <ele>216</ele>
        <time>1989-12-31T01:02:00Z</time>
      </trkpt>
      <trkpt lat="48.73069" lon="-0.62127">
        <ele>209.8</ele>
        <time>1989-12-31T01:02:16Z</time>
      </trkpt>
      <trkpt lat="48.73061" lon="-0.62079">
        <ele>206.8</ele>
        <time>1989-12-31T01:02:23Z</time>
      </trkpt>
      <trkpt lat="48.72974" lon="-0.61924">
        <ele>204.4</ele>
        <time>1989-12-31T01:02:51Z</time>
      </trkpt>
      <trkpt lat="48.72966" lon="-0.61802">
        <ele>210.6</ele>
        <time>1989-12-31T01:03:08Z</time>
      </trkpt>
      <trkpt lat="48.72931" lon="-0.61797">
        <ele>215</ele>
        <time>1989-12-31T01:03:15Z</time>
      </trkpt>
      <trkpt lat="48.72882" lon="-0.61788">
        <ele>215.4</ele>
        <time>1989-12-31T01:03:25Z</time>
      </trkpt>
      <trkpt lat="48.72828" lon="-0.61765">
        <ele>213.6</ele>
        <time>1989-12-31T01:03:37Z</time>
      </trkpt>
      <trkpt lat="48.72711" lon="-0.61521">
        <ele>223.2</ele>
        <time>1989-12-31T01:04:18Z</time>
      </trkpt>
      <trkpt lat="48.72675" lon="-0.61437">
        <ele>223.6</ele>
        <time>1989-12-31T01:04:32Z</time>
      </trkpt>
      <trkpt lat="48.72679" lon="-0.61418">
        <ele>223.6</ele>
        <time>1989-12-31T01:04:34Z</time>
      </trkpt>
      <trkpt lat="48.72725" lon="-0.6137">
        <ele>223.6</ele>
        <time>1989-12-31T01:04:46Z</time>
      </trkpt>
      <trkpt lat="48.73063" lon="-0.60856">
        <ele>208.8</ele>
        <time>1989-12-31T01:06:25Z</time>
      </trkpt>
      <trkpt lat="48.73378" lon="-0.60282">
        <ele>204.8</ele>
        <time>1989-12-31T01:08:07Z</time>
      </trkpt>
      <trkpt lat="48.73452" lon="-0.60108">
        <ele>204</ele>
        <time>1989-12-31T01:08:36Z</time>
      </trkpt>
      <trkpt lat="48.73648" lon="-0.59811">
        <ele>202.4</ele>
        <time>1989-12-31T01:09:33Z</time>
      </trkpt>
      <trkpt lat="48.73742" lon="-0.59636">
        <ele>200.6</ele>
        <time>1989-12-31T01:10:04Z</time>
      </trkpt>
      <trkpt lat="48.73955" lon="-0.59128">
        <ele>196.8</ele>
        <time>1989-12-31T01:11:27Z</time>
      </trkpt>
      <trkpt lat="48.74029" lon="-0.58782">
        <ele>195.2</ele>
        <time>1989-12-31T01:12:16Z</time>
      </trkpt>
      <trkpt lat="48.74215" lon="-0.58548">
        <ele>197.2</ele>
        <time>1989-12-31T01:13:07Z</time>
      </trkpt>
      <trkpt lat="48.74474" lon="-0.57999">
        <ele>193.8</ele>
        <time>1989-12-31T01:14:39Z</time>
      </trkpt>
      <trkpt lat="48.74656" lon="-0.5753">
        <ele>191</ele>
        <time>1989-12-31T01:15:53Z</time>
      </trkpt>
      <trkpt lat="48.74786" lon="-0.5721">
        <ele>187.2</ele>
        <time>1989-12-31T01:16:45Z</time>
      </trkpt>
      <trkpt lat="48.74781" lon="-0.57193">
        <ele>186.2</ele>
        <time>1989-12-31T01:16:47Z</time>
      </trkpt>
      <trkpt lat="48.74757" lon="-0.57212">
        <ele>184.8</ele>
        <time>1989-12-31T01:16:53Z</time>
      </trkpt>
      <trkpt lat="48.74814" lon="-0.57224">
        <ele>211.2</ele>
        <time>1989-12-31T01:17:05Z</time>
      </trkpt>
    </trkseg>
  </trk>
</gpx>